Time;durP1;ratioP1;P1;durP2;ratioP2;P2;SDS_P1;SDS_P2;PMS_P1;PMS_P2;Temp;Humidity;BMP_temperature;BMP_pressure;BME280_temperature;BME280_humidity;BME280_pressure;Samples;Min_cycle;Max_cycle;Signal;HPM_P1;HPM_P2
2023/04/08 04:04:58;;;;;;;8.55;6.75;;;8.00;99.90;;;;;;5629317;23;20236;-64
2023/04/08 04:07:23;;;;;;;10.30;7.70;;;8.00;99.90;;;;;;4975905;28;20175;-66
2023/04/08 04:09:52;;;;;;;8.90;6.60;;;8.00;99.90;;;;;;4976316;28;20238;-65
2023/04/08 04:12:18;;;;;;;9.85;7.25;;;7.90;99.90;;;;;;4976083;28;20258;-64
2023/04/08 04:14:44;;;;;;;10.80;8.40;;;7.90;99.90;;;;;;4975592;28;20283;-65
2023/04/08 04:17:10;;;;;;;9.27;7.00;;;7.90;99.90;;;;;;4976180;28;20168;-64
2023/04/08 04:19:35;;;;;;;8.93;6.67;;;7.90;99.90;;;;;;4975958;28;20688;-65
2023/04/08 04:22:01;;;;;;;9.70;6.50;;;7.90;99.90;;;;;;4974638;28;20423;-64
2023/04/08 04:24:26;;;;;;;13.53;7.17;;;7.90;99.90;;;;;;4964899;28;20197;-65
2023/04/08 04:26:52;;;;;;;10.57;6.13;;;7.90;99.90;;;;;;4956510;29;20175;-63
2023/04/08 04:29:17;;;;;;;9.27;6.13;;;7.90;99.90;;;;;;4956270;29;20247;-66
2023/04/08 04:31:43;;;;;;;10.10;7.37;;;7.90;99.90;;;;;;4956485;29;20543;-64
2023/04/08 04:34:09;;;;;;;10.20;7.80;;;7.90;99.90;;;;;;4954763;29;20276;-66
2023/04/08 04:36:34;;;;;;;12.63;6.83;;;7.90;99.90;;;;;;4956233;29;20180;-62
2023/04/08 04:39:00;;;;;;;9.73;6.37;;;7.90;99.90;;;;;;4956299;28;20192;-65
2023/04/08 04:41:26;;;;;;;8.40;7.53;;;7.90;99.90;;;;;;4956103;29;20215;-64
2023/04/08 04:43:51;;;;;;;10.60;7.83;;;7.90;99.90;;;;;;4955766;28;20590;-65
2023/04/08 04:46:17;;;;;;;10.70;7.37;;;7.80;99.90;;;;;;4954866;29;20416;-64
2023/04/08 04:48:43;;;;;;;11.43;7.90;;;7.70;99.90;;;;;;4956150;29;20568;-66
2023/04/08 04:51:08;;;;;;;9.80;7.97;;;7.70;99.90;;;;;;4954863;29;20176;-64
2023/04/08 04:53:34;;;;;;;12.10;7.20;;;7.70;99.90;;;;;;4955884;29;20187;-65
2023/04/08 04:56:02;;;;;;;9.80;7.40;;;7.70;99.90;;;;;;4955774;28;20188;-64
2023/04/08 04:58:29;;;;;;;12.02;7.95;;;7.60;99.90;;;;;;4954084;28;20196;-64
2023/04/08 05:00:55;;;;;;;10.95;7.43;;;7.60;99.90;;;;;;4964669;28;20178;-67
2023/04/08 05:03:21;;;;;;;13.18;9.05;;;7.50;99.90;;;;;;4974832;28;20214;-64
2023/04/08 05:05:53;;;;;;;10.40;8.33;;;7.50;99.90;;;;;;4974769;28;20207;-66
2023/04/08 05:08:19;;;;;;;11.35;7.38;;;7.50;99.90;;;;;;4975270;28;20176;-64
2023/04/08 05:10:44;;;;;;;9.40;7.85;;;7.40;99.90;;;;;;4975131;28;20172;-67
2023/04/08 05:13:10;;;;;;;12.30;8.27;;;7.40;99.90;;;;;;4974639;28;20230;-63
2023/04/08 05:15:35;;;;;;;11.50;8.23;;;7.40;99.90;;;;;;4974969;28;20526;-67
2023/04/08 05:18:01;;;;;;;11.13;6.60;;;7.30;99.90;;;;;;4975140;28;20230;-64
2023/04/08 05:20:27;;;;;;;17.53;8.50;;;7.30;99.90;;;;;;4974887;28;20218;-65
2023/04/08 05:22:53;;;;;;;12.90;8.67;;;7.40;99.90;;;;;;4975000;28;20172;-64
2023/04/08 05:25:18;;;;;;;9.40;7.67;;;7.40;99.90;;;;;;4974405;28;20453;-65
2023/04/08 05:27:45;;;;;;;10.37;7.27;;;7.40;99.90;;;;;;4974796;28;20179;-64
2023/04/08 05:30:11;;;;;;;16.70;8.70;;;7.50;99.90;;;;;;4974757;28;20168;-65
2023/04/08 05:32:37;;;;;;;13.52;9.88;;;7.50;99.90;;;;;;4974832;28;20194;-63
2023/04/08 05:35:03;;;;;;;16.73;8.90;;;7.60;99.90;;;;;;4961971;28;20675;-63
2023/04/08 05:37:29;;;;;;;8.85;7.20;;;7.60;99.90;;;;;;4954174;28;20220;-65
2023/04/08 05:39:54;;;;;;;11.37;8.47;;;7.70;99.90;;;;;;4955474;28;20287;-64
2023/04/08 05:42:20;;;;;;;15.40;9.37;;;7.70;99.90;;;;;;4955314;28;20174;-64
2023/04/08 05:44:45;;;;;;;14.77;8.23;;;7.70;99.90;;;;;;4954937;28;20191;-64
2023/04/08 05:47:11;;;;;;;11.83;6.73;;;7.80;99.90;;;;;;4953720;29;20211;-63
2023/04/08 05:49:37;;;;;;;11.90;8.27;;;7.80;99.90;;;;;;4955175;28;20204;-65
2023/04/08 05:52:03;;;;;;;13.80;8.70;;;7.80;99.90;;;;;;4955336;29;20177;-66
2023/04/08 05:54:28;;;;;;;13.50;10.00;;;7.90;99.90;;;;;;4954775;29;20247;-67
2023/04/08 05:56:54;;;;;;;11.27;7.70;;;8.00;99.90;;;;;;4955008;29;20295;-65
2023/04/08 05:59:20;;;;;;;14.03;9.00;;;8.00;99.90;;;;;;4953553;28;20258;-66
2023/04/08 06:01:45;;;;;;;15.57;9.17;;;8.00;99.90;;;;;;4954728;28;20666;-65
2023/04/08 06:04:11;;;;;;;10.10;8.17;;;8.10;99.90;;;;;;4954881;29;20255;-65
2023/04/08 06:06:38;;;;;;;11.47;8.40;;;8.10;99.90;;;;;;4954523;29;20211;-63
2023/04/08 06:09:04;;;;;;;18.08;8.85;;;8.20;99.90;;;;;;4953504;28;20184;-66
2023/04/08 06:11:30;;;;;;;13.93;9.87;;;8.20;99.90;;;;;;4958126;28;20758;-64
2023/04/08 06:13:55;;;;;;;12.13;8.97;;;8.30;99.90;;;;;;4968845;28;20431;-63
2023/04/08 06:16:21;;;;;;;15.10;8.10;;;8.30;99.90;;;;;;4958227;28;20181;-63
2023/04/08 06:18:47;;;;;;;10.90;8.67;;;8.40;99.90;;;;;;4958452;28;20196;-65
2023/04/08 06:21:12;;;;;;;12.50;7.93;;;8.40;99.90;;;;;;4958348;28;20181;-63
2023/04/08 06:23:38;;;;;;;8.93;7.77;;;8.50;99.90;;;;;;4958325;29;20204;-65
2023/04/08 06:26:04;;;;;;;9.90;7.20;;;8.50;99.90;;;;;;4958666;29;20539;-64
2023/04/08 06:28:30;;;;;;;11.73;8.10;;;8.60;99.90;;;;;;4958296;28;20639;-64
2023/04/08 06:30:56;;;;;;;10.03;7.50;;;8.60;99.90;;;;;;4958671;28;20487;-66
2023/04/08 06:33:21;;;;;;;12.07;7.88;;;8.70;99.90;;;;;;4957102;29;20650;-65
2023/04/08 06:35:47;;;;;;;12.90;8.17;;;8.70;99.90;;;;;;4958261;28;20259;-68
2023/04/08 06:38:12;;;;;;;7.90;6.70;;;8.70;99.90;;;;;;4958341;28;20207;-64
2023/04/08 06:40:39;;;;;;;9.60;7.77;;;8.80;99.90;;;;;;4958881;28;20176;-64
2023/04/08 06:43:07;;;;;;;10.13;7.28;;;8.80;99.90;;;;;;4957878;28;20544;-61
2023/04/08 06:45:33;;;;;;;11.18;8.10;;;8.70;99.90;;;;;;4956551;29;20200;-65
2023/04/08 06:47:59;;;;;;;14.85;7.38;;;8.70;99.90;;;;;;4958082;28;20169;-64
2023/04/08 06:50:25;;;;;;;9.70;7.40;;;8.80;99.90;;;;;;4958097;28;20194;-66
2023/04/08 06:52:51;;;;;;;9.10;6.80;;;8.80;99.90;;;;;;4957580;28;20173;-64
2023/04/08 06:55:16;;;;;;;10.53;7.27;;;8.90;99.90;;;;;;4957216;28;20195;-67
2023/04/08 06:57:42;;;;;;;8.53;6.73;;;8.90;99.90;;;;;;4957974;28;20172;-71
2023/04/08 07:00:08;;;;;;;10.17;7.53;;;9.00;99.90;;;;;;4958022;28;20244;-73
2023/04/08 07:02:34;;;;;;;8.45;6.93;;;9.10;99.90;;;;;;4957985;28;20181;-72
2023/04/08 07:04:59;;;;;;;8.10;5.90;;;9.10;99.90;;;;;;4957208;28;20209;-68
2023/04/08 07:07:25;;;;;;;8.17;6.37;;;9.10;99.90;;;;;;4957909;28;20184;-65
2023/04/08 07:09:51;;;;;;;9.00;6.27;;;9.10;99.90;;;;;;4957578;28;20260;-62
2023/04/08 07:12:17;;;;;;;9.80;6.50;;;9.20;99.90;;;;;;4957437;28;20283;-65
2023/04/08 07:14:42;;;;;;;9.48;7.90;;;9.30;99.90;;;;;;4957137;28;20188;-71
2023/04/08 07:17:08;;;;;;;9.77;6.97;;;9.40;99.90;;;;;;4957951;28;20267;-64
2023/04/08 07:19:33;;;;;;;8.83;6.87;;;9.50;99.90;;;;;;4957426;28;20227;-64
2023/04/08 07:21:59;;;;;;;12.17;8.57;;;9.60;99.90;;;;;;4956315;28;20629;-63
2023/04/08 07:24:25;;;;;;;8.07;6.10;;;9.70;99.90;;;;;;4956955;28;20276;-64
2023/04/08 07:26:51;;;;;;;8.50;6.82;;;9.80;99.90;;;;;;4957355;28;20599;-64
2023/04/08 07:29:17;;;;;;;8.30;6.40;;;9.80;99.90;;;;;;4957591;28;20194;-63
2023/04/08 07:31:43;;;;;;;8.20;6.80;;;9.90;99.90;;;;;;4957594;28;20915;-63
2023/04/08 07:34:09;;;;;;;8.40;7.13;;;10.10;99.90;;;;;;4957170;28;20274;-64
2023/04/08 07:36:35;;;;;;;8.73;7.00;;;10.20;99.90;;;;;;4957174;28;20426;-62
2023/04/08 07:39:01;;;;;;;8.10;6.17;;;10.30;99.90;;;;;;4956806;28;20460;-65
2023/04/08 07:41:27;;;;;;;12.60;7.57;;;10.50;99.90;;;;;;4956948;28;20235;-63
2023/04/08 07:43:52;;;;;;;8.37;6.17;;;10.80;99.90;;;;;;4956876;28;20504;-64
2023/04/08 07:46:19;;;;;;;9.80;7.60;;;10.90;99.90;;;;;;4956925;28;20197;-65
2023/04/08 07:48:44;;;;;;;8.97;5.70;;;11.10;99.90;;;;;;4957292;28;20180;-68
2023/04/08 07:51:10;;;;;;;9.60;8.60;;;11.20;99.90;;;;;;4956698;28;20430;-65
2023/04/08 07:53:36;;;;;;;7.20;6.03;;;11.30;99.90;;;;;;4956477;28;20256;-65
2023/04/08 07:56:04;;;;;;;6.60;6.00;;;11.50;99.90;;;;;;4956996;28;20223;-65
2023/04/08 07:58:30;;;;;;;11.00;7.83;;;11.50;99.90;;;;;;4957007;28;20200;-66
2023/04/08 08:00:57;;;;;;;8.10;6.60;;;11.40;99.90;;;;;;4957165;28;20459;-70
2023/04/08 08:03:22;;;;;;;9.80;7.80;;;11.40;99.90;;;;;;4956009;28;20431;-65
2023/04/08 08:05:48;;;;;;;14.83;7.50;;;11.30;99.90;;;;;;4956119;28;20960;-65
2023/04/08 08:08:14;;;;;;;10.23;7.13;;;11.40;99.90;;;;;;4956313;29;20211;-66
2023/04/08 08:10:40;;;;;;;7.33;6.10;;;11.30;99.90;;;;;;4956762;28;20187;-64
2023/04/08 08:13:07;;;;;;;11.70;7.47;;;11.10;99.90;;;;;;4956223;28;20234;-69
2023/04/08 08:15:32;;;;;;;7.80;6.33;;;11.10;99.90;;;;;;4956841;28;20982;-64
2023/04/08 08:17:58;;;;;;;9.60;7.30;;;11.00;99.90;;;;;;4957066;28;20415;-62
2023/04/08 08:20:24;;;;;;;6.83;6.03;;;11.00;99.90;;;;;;4956375;28;20190;-64
2023/04/08 08:22:50;;;;;;;8.53;6.87;;;11.00;99.90;;;;;;4956311;28;20423;-63
2023/04/08 08:25:16;;;;;;;8.87;6.97;;;11.00;99.90;;;;;;4956139;28;20593;-65
2023/04/08 08:27:42;;;;;;;10.90;8.70;;;11.10;99.90;;;;;;4956469;28;20649;-61
2023/04/08 08:30:08;;;;;;;8.57;7.50;;;11.20;99.90;;;;;;4956543;28;20423;-61
2023/04/08 08:32:34;;;;;;;10.83;8.73;;;11.40;99.90;;;;;;4955692;28;20190;-62
2023/04/08 08:35:00;;;;;;;7.27;6.23;;;11.90;99.90;;;;;;4955461;28;20459;-67
2023/04/08 08:37:26;;;;;;;8.50;6.70;;;12.60;99.90;;;;;;4956284;28;20555;-67
2023/04/08 08:39:51;;;;;;;10.80;7.33;;;13.30;99.90;;;;;;4956186;28;20465;-66
2023/04/08 08:42:24;;;;;;;8.77;7.13;;;13.60;99.90;;;;;;4955992;28;20183;-65
2023/04/08 08:44:50;;;;;;;8.97;7.20;;;13.80;99.90;;;;;;4955684;28;20207;-66
2023/04/08 08:47:16;;;;;;;11.30;7.20;;;13.90;99.90;;;;;;4956184;28;20418;-62
2023/04/08 08:49:43;;;;;;;14.80;9.10;;;13.90;99.90;;;;;;4955742;28;20231;-69
2023/04/08 08:52:08;;;;;;;9.17;7.00;;;13.90;99.90;;;;;;4956049;28;20420;-63
2023/04/08 08:54:34;;;;;;;7.63;6.47;;;13.90;99.90;;;;;;4955439;28;20444;-67
2023/04/08 08:57:00;;;;;;;8.40;6.47;;;14.00;99.90;;;;;;4955551;28;20182;-71
2023/04/08 08:59:25;;;;;;;15.07;9.03;;;14.20;99.90;;;;;;4955713;28;20259;-67
2023/04/08 09:01:51;;;;;;;8.37;7.50;;;14.30;99.90;;;;;;4955955;28;20180;-68
2023/04/08 09:04:19;;;;;;;6.93;6.30;;;14.50;99.90;;;;;;4955243;28;20280;-67
2023/04/08 09:06:46;;;;;;;7.77;6.97;;;14.70;99.90;;;;;;4955645;28;20204;-70
2023/04/08 09:09:12;;;;;;;8.30;6.90;;;14.80;99.90;;;;;;4956047;28;20412;-72
2023/04/08 09:11:40;;;;;;;8.73;7.00;;;14.90;99.90;;;;;;4934804;29;20434;-67
2023/04/08 09:14:26;;;;;;;11.50;8.07;;;15.00;99.60;;;;;;4953929;29;20449;-69
2023/04/08 09:16:52;;;;;;;8.60;7.83;;;14.80;98.10;;;;;;4955007;28;20432;-66
2023/04/08 09:19:18;;;;;;;10.20;7.87;;;14.90;98.20;;;;;;4955493;28;20946;-66
2023/04/08 09:21:44;;;;;;;8.00;7.00;;;15.40;98.50;;;;;;4955483;28;20409;-69
2023/04/08 09:24:28;;;;;;;8.70;7.80;;;15.80;97.60;;;;;;4954584;28;20453;-69
2023/04/08 09:26:53;;;;;;;8.00;7.20;;;16.10;95.20;;;;;;4935480;29;20409;-67
2023/04/08 09:29:23;;;;;;;7.85;7.15;;;16.30;95.40;;;;;;4935946;29;20491;-70
2023/04/08 09:31:53;;;;;;;8.60;7.05;;;16.50;94.30;;;;;;4937343;29;20828;-68
2023/04/08 09:34:20;;;;;;;7.33;6.63;;;17.10;93.40;;;;;;4954991;28;20185;-66
2023/04/08 09:36:47;;;;;;;8.20;7.13;;;17.40;92.20;;;;;;4955291;28;20424;-68
2023/04/08 09:39:14;;;;;;;8.17;7.37;;;17.40;92.10;;;;;;4954899;28;20535;-73
2023/04/08 09:41:41;;;;;;;8.67;7.27;;;17.70;91.70;;;;;;4955287;28;20495;-73
2023/04/08 09:44:08;;;;;;;7.87;7.17;;;17.70;90.70;;;;;;4954751;28;20455;-74
2023/04/08 09:46:49;;;;;;;7.23;6.63;;;17.90;86.90;;;;;;4954676;28;20826;-71
2023/04/08 09:49:24;;;;;;;6.87;6.27;;;18.00;87.80;;;;;;4955369;28;20412;-75
2023/04/08 09:52:06;;;;;;;8.67;6.50;;;18.40;86.90;;;;;;4954997;28;20416;-73
2023/04/08 09:54:50;;;;;;;7.97;7.17;;;18.60;84.80;;;;;;4954859;28;20395;-70
2023/04/08 09:57:37;;;;;;;7.80;7.10;;;18.50;86.50;;;;;;4955352;28;20401;-68
2023/04/08 10:00:12;;;;;;;9.90;8.10;;;18.20;86.20;;;;;;4955241;29;20506;-69
2023/04/08 10:03:04;;;;;;;8.67;7.83;;;18.30;86.90;;;;;;4953687;29;20423;-67
2023/04/08 10:05:30;;;;;;;8.20;6.60;;;17.90;85.70;;;;;;4954787;28;20455;-67
2023/04/08 10:07:57;;;;;;;9.57;8.07;;;17.50;87.10;;;;;;4954979;28;20428;-67
2023/04/08 10:10:24;;;;;;;7.60;6.87;;;17.20;86.50;;;;;;4953255;28;20899;-67
2023/04/08 10:12:50;;;;;;;8.77;7.87;;;17.00;87.70;;;;;;4954746;28;20834;-66
2023/04/08 10:15:30;;;;;;;9.40;8.00;;;16.50;88.50;;;;;;4954131;29;20543;-65
2023/04/08 10:18:19;;;;;;;9.63;8.40;;;15.60;89.60;;;;;;4955032;28;20404;-65
2023/04/08 10:20:46;;;;;;;8.10;7.00;;;15.20;91.20;;;;;;4954890;28;20417;-64
2023/04/08 10:23:13;;;;;;;8.80;7.07;;;14.70;91.20;;;;;;4954095;28;20412;-65
2023/04/08 10:25:43;;;;;;;10.00;7.80;;;14.40;91.90;;;;;;4954639;28;20426;-65
2023/04/08 10:28:18;;;;;;;9.90;8.33;;;14.00;92.20;;;;;;4954926;28;20879;-65
2023/04/08 10:30:47;;;;;;;7.80;6.67;;;13.70;93.20;;;;;;4954671;28;20960;-66
2023/04/08 10:33:17;;;;;;;7.67;6.50;;;13.50;93.20;;;;;;4954098;28;20537;-66
2023/04/08 10:36:14;;;;;;;8.47;6.73;;;13.40;93.40;;;;;;4954581;28;20464;-66
2023/04/08 10:38:43;;;;;;;8.57;6.97;;;13.10;92.20;;;;;;4954726;28;20966;-65
2023/04/08 10:41:20;;;;;;;8.33;5.73;;;12.80;91.80;;;;;;4954699;28;20496;-65
2023/04/08 10:43:46;;;;;;;7.97;6.40;;;12.70;92.40;;;;;;4953903;28;20446;-66
2023/04/08 10:46:12;;;;;;;7.27;6.10;;;12.70;92.30;;;;;;4953386;29;20503;-66
2023/04/08 10:48:37;;;;;;;6.70;5.93;;;12.50;92.70;;;;;;4954542;28;20534;-66
2023/04/08 10:51:04;;;;;;;9.83;7.13;;;12.40;93.00;;;;;;4953417;29;20794;-66
2023/04/08 10:53:31;;;;;;;11.23;7.13;;;12.30;93.30;;;;;;4954141;28;20705;-65
2023/04/08 10:56:24;;;;;;;8.20;6.83;;;12.30;94.30;;;;;;4955355;28;20802;-66
2023/04/08 10:58:55;;;;;;;7.63;6.30;;;12.40;94.80;;;;;;4955835;28;20919;-67
2023/04/08 11:01:21;;;;;;;7.77;5.90;;;12.50;95.50;;;;;;4958054;28;20441;-66
2023/04/08 11:03:47;;;;;;;10.30;7.63;;;12.60;95.20;;;;;;4957472;28;20432;-66
2023/04/08 11:06:13;;;;;;;7.60;6.90;;;12.70;94.40;;;;;;4957779;28;20940;-65
2023/04/08 11:08:39;;;;;;;7.30;6.60;;;12.80;94.00;;;;;;4958015;28;20474;-69
2023/04/08 11:11:09;;;;;;;7.50;6.80;;;12.80;94.60;;;;;;4956445;29;20412;-66
2023/04/08 11:13:43;;;;;;;8.20;6.93;;;12.80;93.40;;;;;;4952676;29;20779;-63
2023/04/08 11:16:09;;;;;;;7.90;6.80;;;12.80;93.10;;;;;;4957674;28;20435;-65
2023/04/08 11:18:37;;;;;;;7.30;6.67;;;12.90;92.80;;;;;;4957315;28;20958;-65
2023/04/08 11:21:08;;;;;;;6.13;5.53;;;12.90;92.40;;;;;;4957300;28;20531;-65
2023/04/08 11:23:35;;;;;;;9.23;7.03;;;12.80;92.90;;;;;;4956424;28;20842;-67
2023/04/08 11:26:01;;;;;;;14.03;6.77;;;12.80;92.70;;;;;;4956312;28;20435;-67
2023/04/08 11:28:27;;;;;;;8.07;5.87;;;12.80;92.60;;;;;;4956553;28;20416;-67
2023/04/08 11:30:54;;;;;;;7.60;6.77;;;12.80;92.80;;;;;;4955405;29;20562;-66
2023/04/08 11:33:20;;;;;;;6.70;6.03;;;12.60;93.30;;;;;;4955810;29;20436;-66
2023/04/08 11:35:50;;;;;;;5.97;5.40;;;12.50;92.90;;;;;;4957706;28;20813;-66
2023/04/08 11:38:16;;;;;;;7.07;6.33;;;12.40;93.60;;;;;;4955703;28;20986;-67
2023/04/08 11:40:55;;;;;;;8.00;6.20;;;12.30;92.90;;;;;;4955426;28;20435;-67
2023/04/08 11:43:22;;;;;;;6.50;5.90;;;12.30;92.50;;;;;;4955001;28;20542;-67
2023/04/08 11:45:47;;;;;;;10.13;5.80;;;12.30;92.80;;;;;;4955259;28;20431;-67
2023/04/08 11:48:15;;;;;;;8.63;6.60;;;12.20;92.80;;;;;;4955267;28;20477;-67
2023/04/08 11:50:42;;;;;;;10.37;6.30;;;12.10;93.30;;;;;;4955177;28;20327;-67
2023/04/08 11:53:25;;;;;;;7.37;6.67;;;12.10;93.30;;;;;;4955265;28;20998;-65
2023/04/08 11:55:51;;;;;;;6.10;5.50;;;12.20;93.00;;;;;;4956314;29;20574;-68
2023/04/08 11:58:17;;;;;;;6.73;5.97;;;12.20;92.60;;;;;;4955544;28;20861;-65
2023/04/08 12:00:44;;;;;;;7.10;6.40;;;12.10;91.70;;;;;;4957046;29;20403;-64
2023/04/08 12:03:11;;;;;;;7.93;5.90;;;12.10;92.20;;;;;;4956154;28;20270;-66
2023/04/08 12:05:36;;;;;;;7.20;6.47;;;12.10;92.00;;;;;;4956215;28;20466;-66
2023/04/08 12:08:02;;;;;;;5.70;5.30;;;12.10;92.50;;;;;;4955526;28;20793;-65
2023/04/08 12:10:28;;;;;;;8.97;5.77;;;12.10;92.00;;;;;;4956345;28;20265;-65
2023/04/08 12:12:53;;;;;;;6.67;6.07;;;12.20;92.00;;;;;;4955895;28;20429;-64
2023/04/08 12:15:19;;;;;;;7.03;6.33;;;12.20;91.90;;;;;;4956293;28;20326;-64
2023/04/08 12:17:45;;;;;;;8.67;6.50;;;12.10;91.70;;;;;;4956523;28;20194;-64
2023/04/08 12:20:11;;;;;;;6.33;5.73;;;12.10;91.60;;;;;;4956444;28;20214;-63
2023/04/08 12:22:38;;;;;;;6.50;5.63;;;12.20;92.00;;;;;;4956318;28;20219;-65
2023/04/08 12:25:05;;;;;;;6.30;5.70;;;12.30;93.00;;;;;;4956176;28;20826;-65
2023/04/08 12:27:34;;;;;;;12.53;6.33;;;12.40;92.60;;;;;;4956023;28;20957;-66
2023/04/08 12:30:01;;;;;;;6.83;6.10;;;12.40;92.00;;;;;;4956551;28;20412;-65
2023/04/08 12:32:26;;;;;;;8.10;5.73;;;12.40;91.80;;;;;;4956195;28;20423;-65
2023/04/08 12:34:52;;;;;;;7.63;6.80;;;12.40;92.60;;;;;;4956015;28;20416;-65
2023/04/08 12:37:19;;;;;;;8.50;7.20;;;12.40;92.50;;;;;;4956414;28;20173;-64
2023/04/08 12:39:45;;;;;;;5.57;5.07;;;12.40;92.70;;;;;;4956123;28;20216;-64
2023/04/08 12:42:10;;;;;;;6.80;6.20;;;12.60;93.20;;;;;;4956110;28;20521;-65
2023/04/08 12:44:36;;;;;;;8.83;5.97;;;12.60;92.70;;;;;;4956024;28;20199;-65
2023/04/08 12:47:02;;;;;;;8.40;6.93;;;12.70;92.60;;;;;;4955198;29;20177;-66
2023/04/08 12:49:27;;;;;;;7.10;6.40;;;12.70;92.40;;;;;;4956196;28;20181;-65
2023/04/08 12:51:53;;;;;;;6.47;5.87;;;12.70;92.30;;;;;;4956679;28;20651;-65
2023/04/08 12:54:20;;;;;;;10.00;7.73;;;12.80;92.70;;;;;;4956943;28;20550;-66
2023/04/08 12:56:47;;;;;;;6.43;5.73;;;13.00;92.40;;;;;;4957134;28;20472;-64
2023/04/08 12:59:13;;;;;;;8.87;6.83;;;13.10;92.60;;;;;;4956280;28;20850;-65
2023/04/08 13:01:39;;;;;;;8.23;7.00;;;13.10;92.50;;;;;;4955273;28;20522;-65
2023/04/08 13:04:05;;;;;;;6.70;6.00;;;13.00;92.30;;;;;;4954544;29;20234;-64
2023/04/08 13:06:30;;;;;;;7.30;6.07;;;12.80;92.30;;;;;;4956418;28;20177;-64
2023/04/08 13:08:56;;;;;;;7.23;6.50;;;12.60;93.10;;;;;;4955938;29;20419;-65
2023/04/08 13:11:22;;;;;;;7.30;6.60;;;12.60;92.80;;;;;;4955728;28;20176;-64
2023/04/08 13:13:48;;;;;;;9.20;8.20;;;12.50;93.10;;;;;;4955621;29;20190;-66
2023/04/08 13:16:14;;;;;;;9.43;6.87;;;12.40;93.50;;;;;;4954922;28;20199;-66
2023/04/08 13:18:43;;;;;;;7.47;6.50;;;12.40;94.20;;;;;;4955843;28;20455;-65
2023/04/08 13:21:08;;;;;;;8.77;6.13;;;12.50;93.90;;;;;;4955997;28;20503;-64
2023/04/08 13:23:34;;;;;;;7.57;6.20;;;12.40;93.60;;;;;;4956216;28;20498;-63
2023/04/08 13:26:00;;;;;;;10.63;6.60;;;12.40;94.40;;;;;;4955395;28;20286;-62
2023/04/08 13:28:26;;;;;;;7.20;6.10;;;12.40;94.10;;;;;;4955702;28;20441;-64
2023/04/08 13:30:52;;;;;;;6.53;5.83;;;12.20;94.00;;;;;;4955390;28;20409;-65
2023/04/08 13:33:18;;;;;;;8.17;7.00;;;12.20;94.30;;;;;;4954795;28;20210;-65
2023/04/08 13:35:43;;;;;;;7.70;6.50;;;12.20;94.40;;;;;;4954808;29;20902;-64
2023/04/08 13:38:09;;;;;;;8.97;6.47;;;12.20;94.50;;;;;;4954849;29;20186;-64
2023/04/08 13:40:35;;;;;;;6.97;6.17;;;12.20;94.90;;;;;;4954859;29;20189;-64
2023/04/08 13:43:01;;;;;;;7.20;6.50;;;12.30;95.30;;;;;;4954841;28;20172;-67
2023/04/08 13:45:26;;;;;;;5.20;4.70;;;12.30;95.00;;;;;;4953695;29;20204;-64
2023/04/08 13:47:52;;;;;;;10.03;6.53;;;12.40;95.10;;;;;;4955223;28;20814;-65
2023/04/08 13:50:17;;;;;;;6.60;6.00;;;12.50;94.70;;;;;;4954766;28;20214;-65
2023/04/08 13:52:43;;;;;;;5.93;5.33;;;12.60;94.30;;;;;;4955190;28;20259;-64
2023/04/08 13:55:09;;;;;;;6.47;5.73;;;12.70;94.00;;;;;;4954930;28;20282;-64
2023/04/08 13:57:35;;;;;;;5.97;5.43;;;12.70;94.20;;;;;;4955463;28;20175;-64
2023/04/08 14:00:01;;;;;;;7.03;6.23;;;12.70;93.80;;;;;;4954875;28;20207;-64
2023/04/08 14:02:27;;;;;;;6.37;5.77;;;12.80;93.70;;;;;;4955145;28;20412;-64
2023/04/08 14:04:52;;;;;;;6.40;5.00;;;12.60;94.10;;;;;;4954674;28;20217;-65
2023/04/08 14:07:18;;;;;;;6.03;5.50;;;12.60;94.50;;;;;;4955318;28;20423;-65
2023/04/08 14:09:44;;;;;;;6.70;6.10;;;12.60;94.30;;;;;;4954061;29;20188;-64
2023/04/08 14:12:09;;;;;;;6.40;5.73;;;12.60;94.30;;;;;;4954880;28;20922;-65
2023/04/08 14:14:35;;;;;;;7.40;5.80;;;12.50;94.70;;;;;;4954627;28;20697;-65
2023/04/08 14:17:01;;;;;;;6.23;5.73;;;12.40;94.40;;;;;;4955066;28;20191;-65
2023/04/08 14:19:26;;;;;;;9.57;5.90;;;12.40;94.60;;;;;;4954861;28;20206;-64
2023/04/08 14:21:52;;;;;;;7.50;6.20;;;12.30;94.80;;;;;;4954907;29;20183;-65
2023/04/08 14:24:18;;;;;;;7.07;6.03;;;12.40;94.30;;;;;;4954609;28;20200;-65
2023/04/08 14:26:43;;;;;;;7.70;5.80;;;12.30;94.60;;;;;;4954974;28;20200;-65
2023/04/08 14:29:10;;;;;;;5.53;5.03;;;12.30;94.40;;;;;;4954823;28;20180;-64
2023/04/08 14:31:36;;;;;;;6.23;5.20;;;12.20;94.30;;;;;;4956944;28;20203;-64
2023/04/08 14:34:02;;;;;;;7.97;6.20;;;12.20;94.30;;;;;;4958032;28;20930;-65
2023/04/08 14:36:29;;;;;;;7.00;5.53;;;12.30;93.90;;;;;;4958651;28;20666;-65
2023/04/08 14:38:54;;;;;;;6.37;5.57;;;12.30;94.10;;;;;;4958205;28;20451;-64
2023/04/08 14:41:20;;;;;;;8.87;5.33;;;12.40;94.40;;;;;;4958624;28;20988;-66
2023/04/08 14:43:47;;;;;;;5.93;4.80;;;12.50;94.30;;;;;;4958012;28;20543;-65
2023/04/08 14:46:13;;;;;;;6.00;4.97;;;12.50;94.30;;;;;;4958691;28;20470;-65
2023/04/08 14:48:38;;;;;;;6.80;6.03;;;12.50;93.80;;;;;;4958333;28;20416;-64
2023/04/08 14:51:04;;;;;;;6.67;4.77;;;12.60;94.10;;;;;;4958405;28;20186;-66
2023/04/08 14:53:33;;;;;;;5.33;4.50;;;12.60;94.00;;;;;;4957774;28;20588;-65
2023/04/08 14:55:59;;;;;;;4.87;4.37;;;12.70;94.10;;;;;;4958266;28;20439;-65
2023/04/08 14:58:25;;;;;;;5.13;4.70;;;12.80;93.90;;;;;;4958034;28;20408;-65
2023/04/08 15:00:51;;;;;;;8.93;5.60;;;12.80;93.80;;;;;;4958313;28;20456;-64
2023/04/08 15:03:17;;;;;;;4.27;3.87;;;12.80;93.30;;;;;;4957457;28;20191;-64
2023/04/08 15:05:43;;;;;;;5.20;4.70;;;12.80;94.00;;;;;;4957641;28;20491;-63
2023/04/08 15:08:10;;;;;;;5.30;4.80;;;12.70;93.40;;;;;;4958206;28;20519;-64
2023/04/08 15:10:36;;;;;;;4.20;3.80;;;12.60;93.60;;;;;;4958048;28;20419;-65
2023/04/08 15:13:01;;;;;;;4.73;3.90;;;12.60;93.90;;;;;;4957937;28;20945;-63
2023/04/08 15:15:27;;;;;;;3.60;3.30;;;12.50;94.50;;;;;;4957724;28;20566;-65
2023/04/08 15:17:53;;;;;;;4.30;3.17;;;12.50;94.30;;;;;;4957750;28;20190;-65
2023/04/08 15:20:19;;;;;;;3.87;3.40;;;12.40;94.60;;;;;;4956693;29;20410;-65
2023/04/08 15:22:45;;;;;;;2.83;2.63;;;12.30;94.80;;;;;;4957554;28;20186;-64
2023/04/08 15:25:11;;;;;;;3.10;2.90;;;12.20;95.10;;;;;;4956621;28;20810;-66
2023/04/08 15:27:37;;;;;;;4.20;3.40;;;12.20;95.10;;;;;;4957017;28;20424;-65
2023/04/08 15:30:04;;;;;;;3.07;2.87;;;12.10;95.40;;;;;;4957296;28;20890;-65
2023/04/08 15:32:31;;;;;;;3.70;3.40;;;12.00;95.20;;;;;;4957716;28;20602;-66
2023/04/08 15:34:56;;;;;;;3.70;3.30;;;12.00;95.30;;;;;;4956618;28;20459;-64
2023/04/08 15:37:22;;;;;;;3.03;2.70;;;11.90;95.50;;;;;;4956299;29;20506;-64
2023/04/08 15:39:48;;;;;;;2.90;2.70;;;11.90;95.40;;;;;;4957128;28;20639;-64
2023/04/08 15:42:13;;;;;;;4.63;3.90;;;11.90;95.50;;;;;;4957282;28;20629;-64
2023/04/08 15:44:39;;;;;;;3.33;3.13;;;11.90;95.30;;;;;;4956776;28;20232;-65
2023/04/08 15:47:05;;;;;;;2.70;2.50;;;11.90;95.20;;;;;;4957350;28;20532;-63
2023/04/08 15:49:31;;;;;;;3.90;3.60;;;11.90;95.40;;;;;;4957286;28;20414;-64
2023/04/08 15:51:58;;;;;;;2.97;2.77;;;11.90;95.30;;;;;;4955697;29;20195;-65
2023/04/08 15:54:24;;;;;;;3.30;3.10;;;11.90;95.60;;;;;;4956148;28;20688;-66
2023/04/08 15:56:49;;;;;;;4.17;3.77;;;11.80;95.80;;;;;;4957062;28;20501;-64
2023/04/08 15:59:15;;;;;;;3.63;3.27;;;11.80;96.00;;;;;;4956868;28;20638;-65
2023/04/08 16:01:41;;;;;;;4.60;4.20;;;11.70;96.20;;;;;;4957042;28;20410;-64
2023/04/08 16:04:07;;;;;;;4.13;3.77;;;11.60;96.40;;;;;;4955154;29;20203;-64
2023/04/08 16:06:33;;;;;;;4.73;3.73;;;11.60;96.60;;;;;;4956762;28;20657;-64
2023/04/08 16:09:00;;;;;;;4.30;3.97;;;11.50;96.80;;;;;;4956523;28;20183;-63
2023/04/08 16:11:26;;;;;;;4.87;3.70;;;11.50;97.10;;;;;;4956700;28;20203;-65
2023/04/08 16:13:52;;;;;;;3.60;3.30;;;11.50;97.00;;;;;;4955740;28;20780;-65
2023/04/08 16:16:18;;;;;;;4.80;3.90;;;11.40;97.10;;;;;;4956943;28;20180;-66
2023/04/08 16:18:44;;;;;;;4.30;3.93;;;11.30;97.40;;;;;;4955824;28;20729;-63
2023/04/08 16:21:10;;;;;;;4.17;3.80;;;11.10;97.70;;;;;;4956668;28;20177;-68
2023/04/08 16:23:37;;;;;;;6.30;3.80;;;11.10;97.80;;;;;;4956368;28;20411;-67
2023/04/08 16:26:09;;;;;;;3.22;3.03;;;11.00;98.00;;;;;;4956632;28;20229;-66
2023/04/08 16:28:35;;;;;;;3.88;3.58;;;10.90;98.30;;;;;;4955764;28;20186;-68
2023/04/08 16:31:02;;;;;;;3.15;2.92;;;10.80;98.60;;;;;;4956047;28;20229;-65
2023/04/08 16:33:29;;;;;;;4.10;3.75;;;10.80;98.70;;;;;;4955197;28;20177;-67
2023/04/08 16:35:59;;;;;;;3.95;3.55;;;10.80;98.80;;;;;;4953349;29;20281;-70
2023/04/08 16:38:26;;;;;;;4.28;3.88;;;10.80;98.90;;;;;;4955448;28;20179;-66
2023/04/08 16:40:52;;;;;;;4.10;3.72;;;10.70;98.90;;;;;;4955773;28;20170;-66
2023/04/08 16:43:18;;;;;;;3.38;3.10;;;10.70;99.00;;;;;;4955023;28;20178;-66
2023/04/08 16:45:45;;;;;;;3.50;2.97;;;10.70;99.20;;;;;;4955649;28;20544;-65
2023/04/08 16:48:11;;;;;;;4.30;3.90;;;10.70;99.40;;;;;;4955093;28;20920;-68
2023/04/08 16:50:40;;;;;;;3.83;3.53;;;10.60;99.60;;;;;;4955512;28;20174;-67